Airfield :
LOGIN :

Register | Disclaimer

   EN    FR    IT 

 










Legend :    VFR   Marginal VFR   IFR   Intensive IFR   Very Intensive IFR
Visi :
Ceiling :
>= 8 km
>= 3000ft
5 to 8 km
1000 to 3000 ft
1500m to 5 km
500 to 1000 ft
800 to 1500m
200 to 500 ft
< 800m
< 200 ft
Symbols :   Thunderstorms  Fog  Heavy snow  Heavy precipitations  Wind > 20 kt
SIGMETs :     Misc.  Thunderstorms  Icing  Turbulence  Mountain Waves  Volcanic Ashes







- Airport Elevation : 39 ft
- IATA code : TRS


LIPQ - Friuli Venezia Giulia Apt. Trieste

CURRENT METAR :
  • 272320Z AUTO VRB01KT 9999 FEW066/// 19/17 Q1018

EXPIRED METARs :
  • 272250Z AUTO VRB01KT 9999 NCD 19/16 Q1017
  • 272220Z AUTO 03003KT 9999 NCD 20/16 Q1018
  • 272150Z 35004KT CAVOK 20/18 Q1018
  • 272120Z 03003KT 010V070 CAVOK 20/19 Q1018
  • 272050Z 11004KT CAVOK 20/18 Q1017
  • 272020Z VRB02KT CAVOK 21/19 Q1017

TAF TAF LIPQ
Valid from the 27 at 18:00 until the 28 at 18:00 UTC


271700Z 2718/2818 04007KT 9999 SCT030
TEMPO 2718/2721 TSRA
TEMPO 2812/2818 TSRA
No reported NOTAMs for that airfield.
2 SIGMETs reported for the Milano FIR (LIMM) :
 
Embedded thunderstorms
LIMM SIGMET 8 VALID 272300/280300 LIIP
LIMM MILANO FIR EMBD TS OBS W OF LINE N4632 E00923 - N4322 E00847 TOP FL370 MOV S NC=
Embedded thunderstorms
LIMM SIGMET 7 VALID 272100/272300 LIIP
LIMM MILANO FIR EMBD TS OBS WI N4557 E00800 - N4508 E00923 - N4533 E01102 - N4643 E01039 - N4557 E00800 TOP FL370 MOV S NC=



MET'MAP, your aeronautical weather chart ! - Copyright ORBIFLY December 2007 - Disclaimer

ORBIFLY MET'MAP TEAM :

Programming & Development : Alexandra Zaïnal
Concept & Development : Baudouin d'Aumeries
Co-Development & Prog : Marc-Olivier Méhu
Technical & hardware support : Manuel Goepfert

Contact : metmap@orbifly.com




SOURCES & CREDITS :

   NOAA